createdAt,value
2023-04-18T00:00:50.432Z,8.52
2023-04-18T00:03:22.735Z,8.48
2023-04-18T00:05:59.512Z,8.44
2023-04-18T00:08:32.612Z,8.43
2023-04-18T00:11:07.818Z,8.44
2023-04-18T00:13:41.027Z,8.41
2023-04-18T00:16:17.061Z,8.39
2023-04-18T00:18:51.397Z,8.34
2023-04-18T00:21:25.369Z,8.32
2023-04-18T00:23:59.917Z,8.32
2023-04-18T00:26:32.586Z,8.30
2023-04-18T00:29:06.281Z,8.32
2023-04-18T00:31:40.569Z,8.29
2023-04-18T00:34:13.997Z,8.26
2023-04-18T00:36:47.529Z,8.26
2023-04-18T00:39:20.959Z,8.28
2023-04-18T00:41:54.847Z,8.25
2023-04-18T00:44:32.632Z,8.19
2023-04-18T00:47:04.901Z,8.12
2023-04-18T00:49:38.536Z,8.11
2023-04-18T00:52:12.323Z,8.08
2023-04-18T00:54:45.947Z,8.05
2023-04-18T00:57:18.968Z,8.02
2023-04-18T00:59:53.999Z,8.04
2023-04-18T01:02:27.161Z,8.01
2023-04-18T01:05:00.257Z,7.99
2023-04-18T01:07:33.694Z,7.97
2023-04-18T01:10:07.469Z,7.96
2023-04-18T01:12:39.873Z,7.93
2023-04-18T01:15:16.538Z,7.93
2023-04-18T01:17:56.294Z,7.90
2023-04-18T01:20:27.563Z,7.90
2023-04-18T01:23:00.716Z,7.88
2023-04-18T01:25:33.070Z,7.82
2023-04-18T01:28:07.929Z,7.82
2023-04-18T01:30:40.555Z,7.81
2023-04-18T01:33:12.844Z,7.82
2023-04-18T01:35:44.083Z,7.80
2023-04-18T01:38:15.233Z,7.80
2023-04-18T01:40:46.967Z,7.83
2023-04-18T01:43:19.159Z,7.83
2023-04-18T01:45:50.916Z,7.85
2023-04-18T01:48:24.789Z,7.85
2023-04-18T01:50:57.542Z,7.85
2023-04-18T01:53:30.913Z,7.84
2023-04-18T01:56:02.036Z,7.83
2023-04-18T01:58:37.693Z,7.87
2023-04-18T02:01:12.416Z,7.88
2023-04-18T02:03:44.106Z,7.87
2023-04-18T02:06:17.301Z,7.84
2023-04-18T02:08:48.991Z,7.81
2023-04-18T02:11:21.532Z,7.81
2023-04-18T02:13:54.309Z,7.83
2023-04-18T02:16:25.176Z,7.86
2023-04-18T02:18:57.878Z,7.89
2023-04-18T02:21:30.546Z,7.87
2023-04-18T02:24:02.635Z,7.89
2023-04-18T02:26:35.792Z,7.91
2023-04-18T02:29:09.144Z,7.88
2023-04-18T02:31:43.956Z,7.85
2023-04-18T02:34:21.990Z,7.85
2023-04-18T02:36:55.749Z,7.82
2023-04-18T02:39:27.833Z,7.83
2023-04-18T02:42:00.071Z,7.82
2023-04-18T02:44:34.302Z,7.81
2023-04-18T02:47:07.748Z,7.84
2023-04-18T02:49:45.435Z,7.86
2023-04-18T02:52:17.843Z,7.82
2023-04-18T02:54:49.754Z,7.83
2023-04-18T02:57:24.614Z,7.85
2023-04-18T03:00:21.384Z,7.82
2023-04-18T03:03:21.037Z,7.83
2023-04-18T03:06:13.256Z,7.82
2023-04-18T03:08:47.046Z,7.81
2023-04-18T03:11:18.552Z,7.83
2023-04-18T03:13:50.852Z,7.86
2023-04-18T03:16:23.389Z,7.88
2023-04-18T03:18:56.106Z,7.86
2023-04-18T03:21:28.750Z,7.88
2023-04-18T03:24:01.949Z,7.86
2023-04-18T03:26:33.277Z,7.86
2023-04-18T03:29:07.669Z,7.85
2023-04-18T03:31:41.710Z,7.87
2023-04-18T03:34:13.805Z,7.89
2023-04-18T03:36:48.292Z,7.92
2023-04-18T03:39:23.538Z,7.92
2023-04-18T03:41:56.222Z,7.91
2023-04-18T03:44:35.776Z,7.93
2023-04-18T03:47:09.217Z,7.98
2023-04-18T03:49:42.606Z,7.97
2023-04-18T03:52:15.720Z,7.95
2023-04-18T03:54:48.379Z,7.96
2023-04-18T03:57:20.688Z,8.01
2023-04-18T03:59:52.923Z,8.04
2023-04-18T04:02:29.294Z,8.07
2023-04-18T04:05:03.410Z,8.08
2023-04-18T04:07:36.108Z,8.08
2023-04-18T04:10:12.468Z,8.05
2023-04-18T04:12:44.284Z,8.05
2023-04-18T04:15:17.324Z,8.02
2023-04-18T04:17:56.601Z,8.06
2023-04-18T04:20:33.301Z,8.10
2023-04-18T04:23:12.746Z,8.10
2023-04-18T04:25:46.429Z,8.07
2023-04-18T04:28:36.348Z,8.05
2023-04-18T04:31:10.726Z,8.07
2023-04-18T04:33:43.944Z,8.10
2023-04-18T04:36:24.320Z,8.13
2023-04-18T04:38:57.929Z,8.14
2023-04-18T04:41:40.248Z,8.17
2023-04-18T04:44:21.948Z,8.18
2023-04-18T04:46:54.903Z,8.20
2023-04-18T04:49:31.966Z,8.28
2023-04-18T04:52:03.840Z,8.36
2023-04-18T04:54:37.371Z,8.41
2023-04-18T04:57:12.026Z,8.43
2023-04-18T04:59:46.810Z,8.45
2023-04-18T05:02:25.285Z,8.49
2023-04-18T05:04:58.884Z,8.52
2023-04-18T05:07:32.477Z,8.56
2023-04-18T05:10:05.131Z,8.60
2023-04-18T05:12:37.914Z,8.60
2023-04-18T05:15:10.842Z,8.59
2023-04-18T05:17:43.460Z,8.64
2023-04-18T05:20:15.957Z,8.66
2023-04-18T05:22:47.272Z,8.68
2023-04-18T05:25:23.096Z,8.71
2023-04-18T05:27:55.329Z,8.76
2023-04-18T05:30:30.115Z,8.77
2023-04-18T05:33:02.080Z,8.80
2023-04-18T05:35:35.717Z,8.86
2023-04-18T05:38:07.297Z,8.86
2023-04-18T05:40:39.692Z,8.89
2023-04-18T05:43:11.538Z,8.91
2023-04-18T05:45:44.292Z,8.91
2023-04-18T05:48:16.294Z,8.95
2023-04-18T05:50:47.069Z,8.99
2023-04-18T05:53:18.673Z,9.01
2023-04-18T05:55:50.696Z,9.03
2023-04-18T05:58:22.840Z,9.06
2023-04-18T06:01:04.141Z,9.11
2023-04-18T06:03:37.420Z,9.11
2023-04-18T06:06:10.802Z,9.14
2023-04-18T06:08:49.326Z,9.19
2023-04-18T06:11:21.792Z,9.25
2023-04-18T06:13:55.922Z,9.28
2023-04-18T06:16:28.792Z,9.33
2023-04-18T06:19:02.559Z,9.33
2023-04-18T06:21:35.606Z,9.34
2023-04-18T06:24:08.861Z,9.33
2023-04-18T06:26:41.213Z,9.34
2023-04-18T06:29:13.932Z,9.37
2023-04-18T06:31:48.471Z,9.41
2023-04-18T06:34:21.463Z,9.48
2023-04-18T06:36:52.906Z,9.57
2023-04-18T06:39:24.248Z,9.60
2023-04-18T06:41:56.519Z,9.61
2023-04-18T06:44:33.634Z,9.67
2023-04-18T06:47:05.847Z,9.73
2023-04-18T06:49:38.140Z,9.77
2023-04-18T06:52:10.942Z,9.85
2023-04-18T06:54:42.371Z,9.94
2023-04-18T06:57:14.799Z,10.02
2023-04-18T06:59:49.322Z,10.06
2023-04-18T07:02:22.425Z,10.07
2023-04-18T07:04:55.147Z,10.08
2023-04-18T07:07:27.499Z,10.11
2023-04-18T07:09:59.681Z,10.22
2023-04-18T07:12:34.646Z,10.29
2023-04-18T07:15:10.388Z,10.24
2023-04-18T07:17:42.025Z,10.19
2023-04-18T07:20:14.617Z,10.27
2023-04-18T07:22:47.581Z,10.35
2023-04-18T07:25:24.964Z,10.38
2023-04-18T07:27:56.410Z,10.42
2023-04-18T07:30:31.227Z,10.45
2023-04-18T07:33:03.878Z,10.48
2023-04-18T07:35:36.755Z,10.47
2023-04-18T07:38:08.117Z,10.54
2023-04-18T07:40:39.857Z,10.62
2023-04-18T07:43:12.688Z,10.67
2023-04-18T07:45:45.280Z,10.74
2023-04-18T07:48:17.116Z,10.80
2023-04-18T07:50:50.768Z,10.85
2023-04-18T07:53:25.255Z,10.92
2023-04-18T07:55:56.291Z,10.94
2023-04-18T07:58:28.982Z,10.98
2023-04-18T08:01:01.345Z,11.01
2023-04-18T08:03:34.368Z,11.10
2023-04-18T08:06:11.678Z,11.20
2023-04-18T08:08:43.509Z,11.24
2023-04-18T08:11:14.262Z,11.29
2023-04-18T08:13:45.718Z,11.34
2023-04-18T08:16:19.512Z,11.40
2023-04-18T08:18:54.258Z,11.44
2023-04-18T08:21:27.217Z,11.46
2023-04-18T08:24:02.622Z,11.53
2023-04-18T08:26:34.608Z,11.61
2023-04-18T08:29:09.845Z,11.68
2023-04-18T08:31:42.158Z,11.71
2023-04-18T08:34:14.297Z,11.75
2023-04-18T08:36:46.404Z,11.84
2023-04-18T08:39:18.218Z,11.95
2023-04-18T08:41:59.586Z,12.03
2023-04-18T08:44:31.578Z,12.13
2023-04-18T08:47:04.764Z,12.25
2023-04-18T08:49:37.278Z,12.27
2023-04-18T08:52:14.782Z,12.20
2023-04-18T08:54:46.875Z,12.28
2023-04-18T08:57:27.703Z,12.31
2023-04-18T09:00:10.102Z,12.35
2023-04-18T09:02:45.005Z,12.44
2023-04-18T09:05:19.807Z,12.51
2023-04-18T09:07:53.571Z,12.55
2023-04-18T09:10:31.481Z,12.54
2023-04-18T09:13:06.140Z,12.60
2023-04-18T09:15:38.025Z,12.64
2023-04-18T09:18:13.265Z,12.72
2023-04-18T09:20:47.171Z,12.82
2023-04-18T09:23:27.032Z,12.91
2023-04-18T09:25:59.635Z,13.05
2023-04-18T09:28:32.815Z,13.13
2023-04-18T09:31:16.415Z,13.24
2023-04-18T09:33:57.197Z,13.35
2023-04-18T09:36:31.821Z,13.45
2023-04-18T09:39:08.327Z,13.53
2023-04-18T09:41:42.315Z,13.58
2023-04-18T09:44:15.927Z,13.71
2023-04-18T09:46:49.322Z,13.77
2023-04-18T09:49:22.233Z,13.84
2023-04-18T09:51:56.073Z,13.86
2023-04-18T09:54:29.150Z,13.90
2023-04-18T09:57:03.488Z,13.88
2023-04-18T10:00:00.202Z,13.83
2023-04-18T10:02:46.181Z,13.83
2023-04-18T10:05:24.131Z,13.84
2023-04-18T10:07:56.101Z,13.85
2023-04-18T10:10:28.333Z,13.86
2023-04-18T10:13:02.639Z,13.86
2023-04-18T10:15:35.091Z,13.93
2023-04-18T10:18:16.901Z,14.01
2023-04-18T10:20:49.933Z,14.04
2023-04-18T10:23:49.458Z,14.12
2023-04-18T10:26:23.702Z,14.13
2023-04-18T10:28:59.575Z,14.12
2023-04-18T10:31:40.031Z,14.15
2023-04-18T10:34:19.722Z,14.20
2023-04-18T10:37:11.495Z,14.22
2023-04-18T10:40:10.475Z,14.31
2023-04-18T10:43:02.980Z,14.26
2023-04-18T10:45:35.990Z,14.31
2023-04-18T10:48:30.115Z,14.31
2023-04-18T10:51:23.974Z,14.31
2023-04-18T10:53:58.349Z,14.40
2023-04-18T10:56:31.161Z,14.53
2023-04-18T10:59:05.178Z,14.59
2023-04-18T11:01:45.173Z,14.65
2023-04-18T11:04:19.619Z,14.64
2023-04-18T11:06:56.023Z,14.70
2023-04-18T11:09:28.903Z,14.78
2023-04-18T11:12:07.632Z,14.86
2023-04-18T11:14:47.712Z,14.84
2023-04-18T11:17:25.884Z,14.80
2023-04-18T11:20:08.977Z,14.78
2023-04-18T11:22:54.912Z,14.83
2023-04-18T11:25:35.333Z,14.84
2023-04-18T11:28:07.554Z,14.94
2023-04-18T11:30:41.559Z,15.07
2023-04-18T11:33:16.437Z,15.17
2023-04-18T11:35:49.933Z,15.24
2023-04-18T11:40:53.957Z,15.31
2023-04-18T11:43:27.928Z,15.26
2023-04-18T11:46:01.917Z,15.22
2023-04-18T11:48:39.337Z,15.20
2023-04-18T11:51:31.101Z,15.25
2023-04-18T11:54:05.490Z,15.29
2023-04-18T11:56:47.556Z,15.35
2023-04-18T11:59:21.419Z,15.37
2023-04-18T12:02:14.674Z,15.42
2023-04-18T12:04:55.618Z,15.57
2023-04-18T12:07:49.312Z,15.67
2023-04-18T12:10:29.113Z,15.68
2023-04-18T12:13:01.578Z,15.75
2023-04-18T12:15:35.697Z,15.84
2023-04-18T12:18:13.533Z,15.90
2023-04-18T12:20:55.879Z,15.80
2023-04-18T12:23:36.188Z,15.75
2023-04-18T12:26:08.979Z,15.74
2023-04-18T12:28:41.179Z,15.69
2023-04-18T12:31:13.153Z,15.68
2023-04-18T12:33:46.730Z,15.71
2023-04-18T12:36:22.915Z,15.75
2023-04-18T12:38:56.428Z,15.75
2023-04-18T12:41:27.553Z,15.80
2023-04-18T12:44:01.182Z,15.91
2023-04-18T12:46:38.571Z,16.01
2023-04-18T12:49:12.343Z,16.06
2023-04-18T12:51:47.206Z,16.12
2023-04-18T12:54:20.128Z,16.12
2023-04-18T12:56:52.972Z,16.14
2023-04-18T12:59:25.059Z,16.18
2023-04-18T13:01:57.813Z,16.28
2023-04-18T13:04:29.365Z,16.35
2023-04-18T13:07:02.714Z,16.32
2023-04-18T13:09:41.555Z,16.33
2023-04-18T13:12:13.631Z,16.35
2023-04-18T13:14:45.053Z,16.41
2023-04-18T13:17:17.386Z,16.46
2023-04-18T13:19:50.690Z,16.48
2023-04-18T13:22:24.468Z,16.57
2023-04-18T13:25:01.185Z,16.66
2023-04-18T13:27:34.561Z,16.66
2023-04-18T13:30:10.057Z,16.62
2023-04-18T13:32:46.532Z,16.61
2023-04-18T13:35:20.997Z,16.54
2023-04-18T13:37:52.556Z,16.59
2023-04-18T13:40:27.304Z,16.55
2023-04-18T13:43:04.617Z,16.50
2023-04-18T13:45:39.745Z,16.41
2023-04-18T13:48:12.862Z,16.36
2023-04-18T13:50:49.680Z,16.36
2023-04-18T13:53:24.284Z,16.37
2023-04-18T13:55:56.312Z,16.42
2023-04-18T13:58:26.573Z,16.40
2023-04-18T14:00:59.326Z,16.40
2023-04-18T14:03:36.901Z,16.43
2023-04-18T14:06:08.371Z,16.38
2023-04-18T14:08:42.263Z,16.23
2023-04-18T14:11:22.440Z,16.05
2023-04-18T14:13:58.190Z,15.90
2023-04-18T14:16:31.080Z,15.75
2023-04-18T14:19:06.846Z,15.67
2023-04-18T14:21:39.614Z,15.57
2023-04-18T14:24:16.198Z,15.50
2023-04-18T14:26:52.915Z,15.47
2023-04-18T14:29:31.078Z,15.39
2023-04-18T14:32:05.652Z,15.40
2023-04-18T14:34:40.861Z,15.41
2023-04-18T14:37:15.538Z,15.44
2023-04-18T14:39:48.241Z,15.47
2023-04-18T14:42:23.711Z,15.45
2023-04-18T14:44:58.550Z,15.31
2023-04-18T14:47:35.897Z,15.21
2023-04-18T14:50:12.343Z,15.14
2023-04-18T14:52:46.053Z,15.12
2023-04-18T14:55:22.652Z,15.11
2023-04-18T14:57:59.969Z,15.11
2023-04-18T15:00:31.938Z,15.07
2023-04-18T15:03:11.340Z,15.06
2023-04-18T15:05:48.696Z,15.05
2023-04-18T15:08:21.879Z,15.05
2023-04-18T15:10:58.711Z,14.99
2023-04-18T15:13:31.450Z,14.94
2023-04-18T15:16:02.701Z,14.89
2023-04-18T15:18:37.756Z,14.85
2023-04-18T15:21:10.738Z,14.81
2023-04-18T15:23:42.718Z,14.72
2023-04-18T15:26:15.930Z,14.66
2023-04-18T15:28:51.115Z,14.65
2023-04-18T15:31:24.167Z,14.59
2023-04-18T15:33:59.636Z,14.50
2023-04-18T15:36:35.457Z,14.42
2023-04-18T15:39:09.660Z,14.35
2023-04-18T15:41:43.765Z,14.34
2023-04-18T15:44:16.620Z,14.31
2023-04-18T15:46:50.834Z,14.32
2023-04-18T15:49:33.000Z,14.32
2023-04-18T15:52:09.288Z,14.28
2023-04-18T15:54:47.693Z,14.27
2023-04-18T15:57:23.024Z,14.30
2023-04-18T15:59:58.896Z,14.27
2023-04-18T16:02:36.057Z,14.21
2023-04-18T16:05:11.729Z,14.16
2023-04-18T16:07:45.407Z,14.09
2023-04-18T16:10:20.692Z,14.02
2023-04-18T16:12:56.888Z,13.96
2023-04-18T16:15:41.885Z,13.84
2023-04-18T16:18:17.597Z,13.72
2023-04-18T16:20:50.978Z,13.65
2023-04-18T16:23:24.194Z,13.57
2023-04-18T16:25:58.691Z,13.49
2023-04-18T16:28:31.574Z,13.38
2023-04-18T16:31:02.725Z,13.33
2023-04-18T16:33:40.268Z,13.22
2023-04-18T16:36:20.228Z,13.12
2023-04-18T16:38:53.199Z,13.01
2023-04-18T16:41:27.741Z,12.94
2023-04-18T16:44:03.104Z,12.89
2023-04-18T16:46:36.184Z,12.85
2023-04-18T16:49:08.683Z,12.78
2023-04-18T16:51:43.336Z,12.76
2023-04-18T16:54:16.757Z,12.72
2023-04-18T16:56:49.501Z,12.69
2023-04-18T16:59:21.382Z,12.63
2023-04-18T17:01:58.296Z,12.52
2023-04-18T17:04:30.422Z,12.45
2023-04-18T17:07:05.252Z,12.42
2023-04-18T17:09:37.970Z,12.38
2023-04-18T17:12:17.952Z,12.32
2023-04-18T17:14:56.141Z,12.28
2023-04-18T17:17:44.378Z,12.26
2023-04-18T17:20:18.744Z,12.20
2023-04-18T17:22:55.019Z,12.11
2023-04-18T17:25:27.096Z,12.06
2023-04-18T17:28:06.358Z,11.99
2023-04-18T17:30:44.737Z,11.93
2023-04-18T17:33:27.260Z,11.87
2023-04-18T17:36:04.325Z,11.84
2023-04-18T17:38:41.345Z,11.81
2023-04-18T17:41:18.589Z,11.79
2023-04-18T17:43:54.915Z,11.74
2023-04-18T17:46:26.260Z,11.69
2023-04-18T17:49:00.033Z,11.65
2023-04-18T17:51:35.982Z,11.61
2023-04-18T17:54:15.187Z,11.56
2023-04-18T17:56:52.258Z,11.50
2023-04-18T17:59:24.540Z,11.42
2023-04-18T18:01:57.456Z,11.41
2023-04-18T18:04:32.512Z,11.35
2023-04-18T18:07:07.200Z,11.26
2023-04-18T18:09:39.088Z,11.22
2023-04-18T18:12:12.172Z,11.17
2023-04-18T18:14:44.185Z,11.15
2023-04-18T18:17:23.728Z,11.11
2023-04-18T18:19:59.907Z,11.02
2023-04-18T18:22:48.692Z,10.94
2023-04-18T18:25:22.126Z,10.91
2023-04-18T18:27:56.932Z,10.90
2023-04-18T18:30:30.862Z,10.85
2023-04-18T18:33:03.774Z,10.76
2023-04-18T18:35:37.213Z,10.73
2023-04-18T18:38:08.859Z,10.69
2023-04-18T18:40:40.603Z,10.64
2023-04-18T18:43:14.792Z,10.58
2023-04-18T18:45:49.291Z,10.54
2023-04-18T18:48:21.729Z,10.47
2023-04-18T18:50:56.025Z,10.43
2023-04-18T18:53:43.514Z,10.38
2023-04-18T18:56:15.756Z,10.35
2023-04-18T18:58:47.560Z,10.29
2023-04-18T19:01:19.986Z,10.26
2023-04-18T19:03:53.008Z,10.20
2023-04-18T19:06:23.608Z,10.10
2023-04-18T19:08:58.710Z,10.03
2023-04-18T19:11:35.745Z,10.00
2023-04-18T19:14:09.034Z,9.94
2023-04-18T19:16:42.750Z,9.91
2023-04-18T19:19:20.966Z,9.87
2023-04-18T19:21:58.875Z,9.83
2023-04-18T19:24:33.217Z,9.75
2023-04-18T19:27:09.385Z,9.64
2023-04-18T19:29:42.277Z,9.57
2023-04-18T19:32:16.303Z,9.51
2023-04-18T19:34:57.297Z,9.44
2023-04-18T19:37:29.002Z,9.36
2023-04-18T19:40:02.445Z,9.29
2023-04-18T19:42:38.188Z,9.25
2023-04-18T19:45:26.419Z,9.19
2023-04-18T19:47:59.184Z,9.18
2023-04-18T19:50:31.958Z,9.13
2023-04-18T19:53:03.471Z,9.10
2023-04-18T19:55:36.036Z,9.06
2023-04-18T19:58:09.515Z,8.95
2023-04-18T20:00:41.730Z,8.87
2023-04-18T20:03:20.066Z,8.82
2023-04-18T20:05:53.581Z,8.69
2023-04-18T20:08:26.379Z,8.55
2023-04-18T20:11:02.345Z,8.45
2023-04-18T20:13:34.905Z,8.43
2023-04-18T20:16:05.891Z,8.37
2023-04-18T20:18:41.157Z,8.34
2023-04-18T20:21:16.967Z,8.33
2023-04-18T20:23:50.540Z,8.28
2023-04-18T20:26:22.026Z,8.23
2023-04-18T20:28:53.606Z,8.18
2023-04-18T20:31:25.022Z,8.19
2023-04-18T20:33:58.296Z,8.19
2023-04-18T20:36:31.133Z,8.15
2023-04-18T20:39:05.986Z,8.10
2023-04-18T20:41:46.506Z,8.08
2023-04-18T20:44:22.476Z,8.03
2023-04-18T20:46:54.771Z,7.98
2023-04-18T20:49:29.456Z,7.96
2023-04-18T20:52:02.315Z,7.92
2023-04-18T20:54:34.827Z,7.86
2023-04-18T20:57:07.711Z,7.84
2023-04-18T20:59:41.114Z,7.81
2023-04-18T21:02:14.675Z,7.78
2023-04-18T21:04:48.963Z,7.78
2023-04-18T21:07:25.281Z,7.76
2023-04-18T21:09:59.207Z,7.68
2023-04-18T21:12:34.071Z,7.62
2023-04-18T21:15:07.428Z,7.57
2023-04-18T21:17:38.572Z,7.49
2023-04-18T21:20:15.073Z,7.50
2023-04-18T21:22:46.764Z,7.53
2023-04-18T21:25:21.764Z,7.50
2023-04-18T21:27:55.219Z,7.45
2023-04-18T21:30:27.799Z,7.42
2023-04-18T21:33:00.533Z,7.36
2023-04-18T21:35:33.125Z,7.32
2023-04-18T21:38:12.752Z,7.30
2023-04-18T21:40:45.432Z,7.23
2023-04-18T21:43:26.769Z,7.21
2023-04-18T21:46:02.407Z,7.15
2023-04-18T21:48:33.207Z,7.18
2023-04-18T21:51:04.621Z,7.18
2023-04-18T21:53:36.976Z,7.19
2023-04-18T21:56:15.457Z,7.16
2023-04-18T21:58:49.816Z,7.10
2023-04-18T22:01:21.207Z,7.05
2023-04-18T22:03:56.048Z,7.02
2023-04-18T22:06:30.205Z,6.95
2023-04-18T22:09:06.077Z,6.96
2023-04-18T22:11:39.420Z,6.96
2023-04-18T22:14:16.264Z,6.90
2023-04-18T22:16:51.421Z,6.83
2023-04-18T22:19:41.632Z,6.80
2023-04-18T22:22:17.059Z,6.73
2023-04-18T22:24:51.895Z,6.69
2023-04-18T22:27:23.930Z,6.65
2023-04-18T22:29:55.980Z,6.65
2023-04-18T22:32:44.274Z,6.66
2023-04-18T22:35:18.236Z,6.60
2023-04-18T22:37:55.294Z,6.59
2023-04-18T22:40:27.642Z,6.58
2023-04-18T22:43:00.446Z,6.55
2023-04-18T22:45:34.041Z,6.52
2023-04-18T22:48:11.421Z,6.52
2023-04-18T22:50:44.473Z,6.52
2023-04-18T22:53:18.555Z,6.47
2023-04-18T22:55:52.946Z,6.42
2023-04-18T22:58:25.696Z,6.39
2023-04-18T23:00:59.484Z,6.34
2023-04-18T23:03:34.969Z,6.32
2023-04-18T23:06:10.848Z,6.30
2023-04-18T23:08:42.676Z,6.27
2023-04-18T23:11:14.620Z,6.24
2023-04-18T23:13:46.117Z,6.21
2023-04-18T23:16:19.024Z,6.21
2023-04-18T23:18:54.426Z,6.19
2023-04-18T23:21:28.271Z,6.16
2023-04-18T23:24:02.354Z,6.11
2023-04-18T23:26:36.993Z,6.09
2023-04-18T23:29:09.148Z,6.07
2023-04-18T23:31:41.796Z,6.08
2023-04-18T23:34:14.858Z,6.04
2023-04-18T23:36:48.784Z,6.02
2023-04-18T23:39:22.116Z,6.02
2023-04-18T23:41:54.953Z,5.99
2023-04-18T23:44:27.766Z,6.00
2023-04-18T23:46:59.867Z,6.00
2023-04-18T23:49:31.823Z,5.99
2023-04-18T23:52:04.839Z,5.97
2023-04-18T23:54:37.512Z,5.92
2023-04-18T23:57:10.063Z,5.90
2023-04-18T23:59:41.907Z,5.84
